sensor_id;sensor_type;location;lat;lon;timestamp;pressure;altitude;pressure_sealevel;temperature;humidity
40838;BME280;29632;49.168;9.848;2023-02-23T00:01:40;96440.94;;;14.68;40.75
40838;BME280;29632;49.168;9.848;2023-02-23T00:04:06;96442.25;;;14.64;40.90
40838;BME280;29632;49.168;9.848;2023-02-23T00:06:33;96441.63;;;14.62;40.80
40838;BME280;29632;49.168;9.848;2023-02-23T00:09:00;96439.34;;;14.59;40.87
40838;BME280;29632;49.168;9.848;2023-02-23T00:11:30;96439.50;;;14.57;40.64
40838;BME280;29632;49.168;9.848;2023-02-23T00:13:58;96437.06;;;14.56;40.93
40838;BME280;29632;49.168;9.848;2023-02-23T00:16:25;96433.63;;;14.55;40.90
40838;BME280;29632;49.168;9.848;2023-02-23T00:18:55;96442.03;;;14.50;40.97
40838;BME280;29632;49.168;9.848;2023-02-23T00:21:23;96444.81;;;14.49;40.80
40838;BME280;29632;49.168;9.848;2023-02-23T00:24:01;96435.84;;;14.43;41.18
40838;BME280;29632;49.168;9.848;2023-02-23T00:26:28;96441.63;;;14.39;41.18
40838;BME280;29632;49.168;9.848;2023-02-23T00:29:07;96435.09;;;14.34;40.95
40838;BME280;29632;49.168;9.848;2023-02-23T00:31:33;96433.66;;;14.32;41.06
40838;BME280;29632;49.168;9.848;2023-02-23T00:34:01;96441.69;;;14.30;40.82
40838;BME280;29632;49.168;9.848;2023-02-23T00:36:32;96436.28;;;14.32;41.07
40838;BME280;29632;49.168;9.848;2023-02-23T00:39:00;96439.22;;;14.29;41.06
40838;BME280;29632;49.168;9.848;2023-02-23T00:41:27;96440.59;;;14.25;41.21
40838;BME280;29632;49.168;9.848;2023-02-23T00:43:54;96440.75;;;14.23;41.04
40838;BME280;29632;49.168;9.848;2023-02-23T00:46:22;96444.34;;;14.22;41.17
40838;BME280;29632;49.168;9.848;2023-02-23T00:48:49;96438.47;;;14.20;41.01
40838;BME280;29632;49.168;9.848;2023-02-23T00:51:16;96429.81;;;14.20;41.37
40838;BME280;29632;49.168;9.848;2023-02-23T00:53:42;96429.00;;;14.19;41.44
40838;BME280;29632;49.168;9.848;2023-02-23T00:56:10;96430.78;;;14.19;41.09
40838;BME280;29632;49.168;9.848;2023-02-23T00:58:36;96430.44;;;14.22;41.57
40838;BME280;29632;49.168;9.848;2023-02-23T01:01:07;96436.31;;;14.24;41.18
40838;BME280;29632;49.168;9.848;2023-02-23T01:03:33;96429.09;;;14.26;41.32
40838;BME280;29632;49.168;9.848;2023-02-23T01:06:00;96425.34;;;14.28;41.05
40838;BME280;29632;49.168;9.848;2023-02-23T01:08:30;96428.41;;;14.32;41.27
40838;BME280;29632;49.168;9.848;2023-02-23T01:10:56;96430.69;;;14.35;41.15
40838;BME280;29632;49.168;9.848;2023-02-23T01:13:22;96434.75;;;14.38;41.41
40838;BME280;29632;49.168;9.848;2023-02-23T01:15:49;96436.22;;;14.40;41.02
40838;BME280;29632;49.168;9.848;2023-02-23T01:18:15;96432.59;;;14.41;41.32
40838;BME280;29632;49.168;9.848;2023-02-23T01:20:42;96428.19;;;14.42;41.10
40838;BME280;29632;49.168;9.848;2023-02-23T01:23:12;96430.59;;;14.43;40.87
40838;BME280;29632;49.168;9.848;2023-02-23T01:25:40;96427.97;;;14.43;41.29
40838;BME280;29632;49.168;9.848;2023-02-23T01:28:10;96437.47;;;14.44;41.21
40838;BME280;29632;49.168;9.848;2023-02-23T01:30:37;96430.59;;;14.43;41.57
40838;BME280;29632;49.168;9.848;2023-02-23T01:33:03;96430.59;;;14.43;41.17
40838;BME280;29632;49.168;9.848;2023-02-23T01:35:30;96433.41;;;14.42;41.37
40838;BME280;29632;49.168;9.848;2023-02-23T01:37:55;96423.28;;;14.39;41.07
40838;BME280;29632;49.168;9.848;2023-02-23T01:40:23;96418.84;;;14.39;41.21
40838;BME280;29632;49.168;9.848;2023-02-23T01:43:05;96423.47;;;14.37;41.27
40838;BME280;29632;49.168;9.848;2023-02-23T01:45:36;96422.66;;;14.37;41.33
40838;BME280;29632;49.168;9.848;2023-02-23T01:48:14;96423.47;;;14.37;41.87
40838;BME280;29632;49.168;9.848;2023-02-23T01:53:28;96412.97;;;14.37;41.33
40838;BME280;29632;49.168;9.848;2023-02-23T01:55:57;96406.75;;;14.38;41.23
40838;BME280;29632;49.168;9.848;2023-02-23T01:58:23;96416.41;;;14.38;41.47
40838;BME280;29632;49.168;9.848;2023-02-23T02:00:54;96409.19;;;14.40;41.34
40838;BME280;29632;49.168;9.848;2023-02-23T02:03:30;96412.47;;;14.42;41.81
40838;BME280;29632;49.168;9.848;2023-02-23T02:05:59;96415.72;;;14.44;41.55
40838;BME280;29632;49.168;9.848;2023-02-23T02:08:27;96415.88;;;14.42;41.58
40838;BME280;29632;49.168;9.848;2023-02-23T02:10:54;96421.94;;;14.43;41.40
40838;BME280;29632;49.168;9.848;2023-02-23T02:13:29;96415.25;;;14.40;41.53
40838;BME280;29632;49.168;9.848;2023-02-23T02:19:00;96408.03;;;14.42;41.44
40838;BME280;29632;49.168;9.848;2023-02-23T02:33:32;96403.13;;;14.39;41.78
40838;BME280;29632;49.168;9.848;2023-02-23T02:36:35;96400.50;;;14.39;41.51
40838;BME280;29632;49.168;9.848;2023-02-23T02:42:16;96404.16;;;14.38;41.56
40838;BME280;29632;49.168;9.848;2023-02-23T02:45:22;96404.16;;;14.38;41.84
40838;BME280;29632;49.168;9.848;2023-02-23T02:50:22;96399.53;;;14.40;41.77
40838;BME280;29632;49.168;9.848;2023-02-23T02:52:58;96405.59;;;14.41;41.57
40838;BME280;29632;49.168;9.848;2023-02-23T02:55:28;96407.22;;;14.42;41.75
40838;BME280;29632;49.168;9.848;2023-02-23T02:57:58;96404.41;;;14.43;41.76
40838;BME280;29632;49.168;9.848;2023-02-23T03:00:50;96404.41;;;14.43;41.57
40838;BME280;29632;49.168;9.848;2023-02-23T03:03:42;96398.19;;;14.44;41.78
40838;BME280;29632;49.168;9.848;2023-02-23T03:12:30;96399.38;;;14.42;42.09
40838;BME280;29632;49.168;9.848;2023-02-23T03:21:24;96397.72;;;14.41;41.57
40838;BME280;29632;49.168;9.848;2023-02-23T03:24:48;96404.16;;;14.38;41.83
40838;BME280;29632;49.168;9.848;2023-02-23T03:27:43;96407.56;;;14.39;41.85
40838;BME280;29632;49.168;9.848;2023-02-23T03:30:36;96405.75;;;14.39;42.16
40838;BME280;29632;49.168;9.848;2023-02-23T03:33:35;96399.06;;;14.37;42.19
40838;BME280;29632;49.168;9.848;2023-02-23T03:36:26;96405.94;;;14.38;42.23
40838;BME280;29632;49.168;9.848;2023-02-23T03:39:19;96403.13;;;14.39;42.13
40838;BME280;29632;49.168;9.848;2023-02-23T03:42:10;96407.22;;;14.42;42.04
40838;BME280;29632;49.168;9.848;2023-02-23T03:44:56;96396.53;;;14.43;41.98
40838;BME280;29632;49.168;9.848;2023-02-23T03:47:42;96408.66;;;14.44;41.98
40838;BME280;29632;49.168;9.848;2023-02-23T03:50:31;96406.03;;;14.44;41.83
40838;BME280;29632;49.168;9.848;2023-02-23T03:53:21;96405.25;;;14.44;42.02
40838;BME280;29632;49.168;9.848;2023-02-23T03:56:08;96403.41;;;14.44;42.15
40838;BME280;29632;49.168;9.848;2023-02-23T03:58:57;96411.28;;;14.44;41.97
40838;BME280;29632;49.168;9.848;2023-02-23T04:01:42;96411.28;;;14.44;42.08
40838;BME280;29632;49.168;9.848;2023-02-23T04:04:26;96400.16;;;14.42;42.03
40838;BME280;29632;49.168;9.848;2023-02-23T04:07:12;96405.41;;;14.42;42.18
40838;BME280;29632;49.168;9.848;2023-02-23T04:09:57;96400.97;;;14.43;42.27
40838;BME280;29632;49.168;9.848;2023-02-23T04:12:47;96405.25;;;14.44;42.07
40838;BME280;29632;49.168;9.848;2023-02-23T04:15:36;96403.41;;;14.44;42.20
40838;BME280;29632;49.168;9.848;2023-02-23T04:18:07;96400.16;;;14.42;42.08
40838;BME280;29632;49.168;9.848;2023-02-23T04:20:35;96407.03;;;14.43;42.18
40838;BME280;29632;49.168;9.848;2023-02-23T04:23:01;96406.03;;;14.44;42.33
40838;BME280;29632;49.168;9.848;2023-02-23T04:25:28;96409.47;;;14.45;42.54
40838;BME280;29632;49.168;9.848;2023-02-23T04:27:54;96404.06;;;14.46;42.36
40838;BME280;29632;49.168;9.848;2023-02-23T04:30:20;96405.88;;;14.46;42.51
40838;BME280;29632;49.168;9.848;2023-02-23T04:32:49;96411.09;;;14.46;42.36
40838;BME280;29632;49.168;9.848;2023-02-23T04:35:15;96404.06;;;14.46;42.38
40838;BME280;29632;49.168;9.848;2023-02-23T04:37:41;96410.94;;;14.47;42.44
40838;BME280;29632;49.168;9.848;2023-02-23T04:40:07;96409.28;;;14.46;42.59
40838;BME280;29632;49.168;9.848;2023-02-23T04:42:33;96418.78;;;14.47;42.04
40838;BME280;29632;49.168;9.848;2023-02-23T04:44:58;96415.53;;;14.45;42.33
40838;BME280;29632;49.168;9.848;2023-02-23T04:47:24;96409.47;;;14.45;42.42
40838;BME280;29632;49.168;9.848;2023-02-23T04:49:50;96413.72;;;14.46;42.49
40838;BME280;29632;49.168;9.848;2023-02-23T04:52:15;96415.38;;;14.47;42.36
40838;BME280;29632;49.168;9.848;2023-02-23T04:54:41;96415.38;;;14.47;42.73
40838;BME280;29632;49.168;9.848;2023-02-23T04:57:08;96418.78;;;14.47;42.51
40838;BME280;29632;49.168;9.848;2023-02-23T04:59:34;96415.72;;;14.44;42.84
40838;BME280;29632;49.168;9.848;2023-02-23T05:02:00;96408.03;;;14.42;42.74
40838;BME280;29632;49.168;9.848;2023-02-23T05:04:26;96411.00;;;14.39;42.64
40838;BME280;29632;49.168;9.848;2023-02-23T05:06:52;96410.38;;;14.37;42.53
40838;BME280;29632;49.168;9.848;2023-02-23T05:09:17;96405.47;;;14.34;42.91
40838;BME280;29632;49.168;9.848;2023-02-23T05:11:43;96405.00;;;14.30;42.70
40838;BME280;29632;49.168;9.848;2023-02-23T05:14:09;96410.59;;;14.27;42.76
40838;BME280;29632;49.168;9.848;2023-02-23T05:16:37;96410.75;;;14.26;42.82
40838;BME280;29632;49.168;9.848;2023-02-23T05:19:03;96408.34;;;14.24;43.06
40838;BME280;29632;49.168;9.848;2023-02-23T05:21:29;96405.91;;;14.23;42.92
40838;BME280;29632;49.168;9.848;2023-02-23T05:23:55;96407.69;;;14.22;43.16
40838;BME280;29632;49.168;9.848;2023-02-23T05:26:21;96406.25;;;14.20;43.08
40838;BME280;29632;49.168;9.848;2023-02-23T05:28:47;96410.50;;;14.21;43.39
40838;BME280;29632;49.168;9.848;2023-02-23T05:31:13;96409.22;;;14.16;42.79
40838;BME280;29632;49.168;9.848;2023-02-23T05:33:38;96411.19;;;14.14;43.48
40838;BME280;29632;49.168;9.848;2023-02-23T05:36:14;96405.97;;;14.14;43.10
40838;BME280;29632;49.168;9.848;2023-02-23T05:38:41;96408.41;;;14.16;43.08
40838;BME280;29632;49.168;9.848;2023-02-23T05:41:09;96407.41;;;14.17;43.24
40838;BME280;29632;49.168;9.848;2023-02-23T05:43:35;96408.22;;;14.18;43.21
40838;BME280;29632;49.168;9.848;2023-02-23T05:46:05;96404.78;;;14.17;43.19
40838;BME280;29632;49.168;9.848;2023-02-23T05:48:30;96404.78;;;14.17;43.02
40838;BME280;29632;49.168;9.848;2023-02-23T05:51:00;96408.41;;;14.16;43.22
40838;BME280;29632;49.168;9.848;2023-02-23T05:53:26;96405.78;;;14.16;43.27
40838;BME280;29632;49.168;9.848;2023-02-23T05:55:52;96402.53;;;14.14;43.20
40838;BME280;29632;49.168;9.848;2023-02-23T05:58:18;96409.38;;;14.15;43.40
40838;BME280;29632;49.168;9.848;2023-02-23T06:00:43;96410.84;;;14.18;43.40
40838;BME280;29632;49.168;9.848;2023-02-23T06:03:09;96407.22;;;14.19;43.27
40838;BME280;29632;49.168;9.848;2023-02-23T06:05:35;96413.94;;;14.21;43.05
40838;BME280;29632;49.168;9.848;2023-02-23T06:08:00;96408.69;;;14.21;43.26
40838;BME280;29632;49.168;9.848;2023-02-23T06:10:26;96408.34;;;14.24;43.02
40838;BME280;29632;49.168;9.848;2023-02-23T06:12:51;96410.75;;;14.26;42.99
40838;BME280;29632;49.168;9.848;2023-02-23T06:15:17;96409.44;;;14.30;43.28
40838;BME280;29632;49.168;9.848;2023-02-23T06:17:43;96412.69;;;14.32;43.35
40838;BME280;29632;49.168;9.848;2023-02-23T06:20:09;96419.38;;;14.34;42.91
40838;BME280;29632;49.168;9.848;2023-02-23T06:22:35;96419.19;;;14.36;43.14
40838;BME280;29632;49.168;9.848;2023-02-23T06:25:00;96423.63;;;14.35;43.51
40838;BME280;29632;49.168;9.848;2023-02-23T06:27:29;96424.44;;;14.36;43.11
40838;BME280;29632;49.168;9.848;2023-02-23T06:29:55;96422.66;;;14.37;43.08
40838;BME280;29632;49.168;9.848;2023-02-23T06:32:21;96425.28;;;14.37;43.37
40838;BME280;29632;49.168;9.848;2023-02-23T06:34:46;96435.94;;;14.35;42.99
40838;BME280;29632;49.168;9.848;2023-02-23T06:37:12;96433.31;;;14.35;43.40
40838;BME280;29632;49.168;9.848;2023-02-23T06:39:37;96434.91;;;14.36;43.33
40838;BME280;29632;49.168;9.848;2023-02-23T06:42:03;96434.91;;;14.36;43.27
40838;BME280;29632;49.168;9.848;2023-02-23T06:44:29;96435.75;;;14.37;43.10
40838;BME280;29632;49.168;9.848;2023-02-23T06:46:54;96434.75;;;14.38;43.32
40838;BME280;29632;49.168;9.848;2023-02-23T06:49:20;96437.53;;;14.36;43.11
40838;BME280;29632;49.168;9.848;2023-02-23T06:51:46;96443.50;;;14.30;43.06
40838;BME280;29632;49.168;9.848;2023-02-23T06:54:12;96442.88;;;14.28;43.43
40838;BME280;29632;49.168;9.848;2023-02-23T06:56:37;96441.22;;;14.27;43.45
40838;BME280;29632;49.168;9.848;2023-02-23T06:59:03;96441.22;;;14.27;43.45
40838;BME280;29632;49.168;9.848;2023-02-23T07:01:28;96446.47;;;14.27;43.51
40838;BME280;29632;49.168;9.848;2023-02-23T07:03:54;96450.56;;;14.29;43.37
40838;BME280;29632;49.168;9.848;2023-02-23T07:06:20;96453.97;;;14.30;43.54
40838;BME280;29632;49.168;9.848;2023-02-23T07:08:45;96450.56;;;14.29;43.53
40838;BME280;29632;49.168;9.848;2023-02-23T07:11:13;96459.56;;;14.27;43.43
40838;BME280;29632;49.168;9.848;2023-02-23T07:13:40;96456.31;;;14.25;43.88
40838;BME280;29632;49.168;9.848;2023-02-23T07:16:07;96458.91;;;14.25;43.58
40838;BME280;29632;49.168;9.848;2023-02-23T07:18:32;96456.63;;;14.22;43.81
40838;BME280;29632;49.168;9.848;2023-02-23T07:20:58;96452.94;;;14.16;43.69
40838;BME280;29632;49.168;9.848;2023-02-23T07:23:24;96457.88;;;14.11;43.92
40838;BME280;29632;49.168;9.848;2023-02-23T07:25:50;96464.63;;;14.05;43.81
40838;BME280;29632;49.168;9.848;2023-02-23T07:28:16;96468.91;;;13.98;44.06
40838;BME280;29632;49.168;9.848;2023-02-23T07:30:42;96463.72;;;13.90;44.49
40838;BME280;29632;49.168;9.848;2023-02-23T07:33:08;96469.47;;;13.85;44.16
40838;BME280;29632;49.168;9.848;2023-02-23T07:35:33;96474.41;;;13.80;44.08
40838;BME280;29632;49.168;9.848;2023-02-23T07:37:59;96470.50;;;13.76;44.28
40838;BME280;29632;49.168;9.848;2023-02-23T07:40:25;96469.06;;;13.73;43.92
40838;BME280;29632;49.168;9.848;2023-02-23T07:42:51;96472.19;;;13.69;44.45
40838;BME280;29632;49.168;9.848;2023-02-23T07:45:16;96471.88;;;13.64;44.63
40838;BME280;29632;49.168;9.848;2023-02-23T07:47:42;96475.47;;;13.63;44.17
40838;BME280;29632;49.168;9.848;2023-02-23T07:50:09;96477.28;;;13.62;44.48
40838;BME280;29632;49.168;9.848;2023-02-23T07:52:38;96476.28;;;13.63;44.20
40838;BME280;29632;49.168;9.848;2023-02-23T07:55:05;96479.56;;;13.65;44.54
40838;BME280;29632;49.168;9.848;2023-02-23T07:57:31;96473.97;;;13.68;44.50
40838;BME280;29632;49.168;9.848;2023-02-23T07:59:57;96481.63;;;13.70;44.41
40838;BME280;29632;49.168;9.848;2023-02-23T08:02:23;96478.03;;;13.71;44.25
40838;BME280;29632;49.168;9.848;2023-02-23T08:04:48;96484.94;;;13.72;44.35
40838;BME280;29632;49.168;9.848;2023-02-23T08:07:14;96476.06;;;13.73;44.61
40838;BME280;29632;49.168;9.848;2023-02-23T08:09:40;96481.13;;;13.74;44.22
40838;BME280;29632;49.168;9.848;2023-02-23T08:12:06;96480.00;;;13.77;44.42
40838;BME280;29632;49.168;9.848;2023-02-23T08:14:32;96481.44;;;13.79;44.13
40838;BME280;29632;49.168;9.848;2023-02-23T08:16:57;96478.66;;;13.81;44.40
40838;BME280;29632;49.168;9.848;2023-02-23T08:19:26;96486.34;;;13.83;44.44
40838;BME280;29632;49.168;9.848;2023-02-23T08:21:52;96477.47;;;13.84;44.65
40838;BME280;29632;49.168;9.848;2023-02-23T08:24:17;96484.38;;;13.85;44.01
40838;BME280;29632;49.168;9.848;2023-02-23T08:26:43;96487.63;;;13.87;44.37
40838;BME280;29632;49.168;9.848;2023-02-23T08:29:09;96489.91;;;13.90;44.41
40838;BME280;29632;49.168;9.848;2023-02-23T08:31:35;96480.06;;;13.92;44.20
40838;BME280;29632;49.168;9.848;2023-02-23T08:34:01;96486.94;;;13.93;44.09
40838;BME280;29632;49.168;9.848;2023-02-23T08:36:26;96489.56;;;13.93;44.16
40838;BME280;29632;49.168;9.848;2023-02-23T08:38:52;96493.00;;;13.93;44.20
40838;BME280;29632;49.168;9.848;2023-02-23T08:41:19;96492.81;;;13.95;44.01
40838;BME280;29632;49.168;9.848;2023-02-23T08:43:45;96488.22;;;13.97;44.27
40838;BME280;29632;49.168;9.848;2023-02-23T08:46:11;96484.63;;;13.98;44.20
40838;BME280;29632;49.168;9.848;2023-02-23T08:48:37;96488.84;;;13.99;44.39
40838;BME280;29632;49.168;9.848;2023-02-23T08:51:05;96484.47;;;14.00;44.42
40838;BME280;29632;49.168;9.848;2023-02-23T08:53:31;96488.84;;;13.99;44.31
40838;BME280;29632;49.168;9.848;2023-02-23T08:55:58;96488.84;;;13.99;44.36
40838;BME280;29632;49.168;9.848;2023-02-23T08:58:25;96482.66;;;14.00;44.62
40838;BME280;29632;49.168;9.848;2023-02-23T09:00:51;96485.09;;;14.02;44.19
40838;BME280;29632;49.168;9.848;2023-02-23T09:03:18;96487.53;;;14.03;44.34
40838;BME280;29632;49.168;9.848;2023-02-23T09:05:44;96484.94;;;14.03;44.47
40838;BME280;29632;49.168;9.848;2023-02-23T09:08:11;96490.34;;;14.02;44.41
40838;BME280;29632;49.168;9.848;2023-02-23T09:10:38;96492.31;;;14.00;44.77
40838;BME280;29632;49.168;9.848;2023-02-23T09:13:03;96496.38;;;14.02;44.63
40838;BME280;29632;49.168;9.848;2023-02-23T09:15:29;96505.03;;;14.03;44.81
40838;BME280;29632;49.168;9.848;2023-02-23T09:18:01;96502.25;;;14.04;44.54
40838;BME280;29632;49.168;9.848;2023-02-23T09:20:27;96503.91;;;14.05;44.99
40838;BME280;29632;49.168;9.848;2023-02-23T09:22:53;96509.13;;;14.05;45.01
40838;BME280;29632;49.168;9.848;2023-02-23T09:25:20;96502.41;;;14.03;45.01
40838;BME280;29632;49.168;9.848;2023-02-23T09:27:47;96514.72;;;14.02;44.82
40838;BME280;29632;49.168;9.848;2023-02-23T09:30:14;96505.03;;;14.03;45.14
40838;BME280;29632;49.168;9.848;2023-02-23T09:32:46;96510.09;;;14.04;45.07
40838;BME280;29632;49.168;9.848;2023-02-23T09:35:13;96507.16;;;14.07;45.29
40838;BME280;29632;49.168;9.848;2023-02-23T09:37:49;96510.56;;;14.08;44.88
40838;BME280;29632;49.168;9.848;2023-02-23T09:40:17;96504.38;;;14.09;45.09
40838;BME280;29632;49.168;9.848;2023-02-23T09:42:49;96502.22;;;14.12;45.21
40838;BME280;29632;49.168;9.848;2023-02-23T09:50:31;96506.28;;;14.15;45.17
40838;BME280;29632;49.168;9.848;2023-02-23T09:55:48;96509.38;;;14.19;44.87
40838;BME280;29632;49.168;9.848;2023-02-23T09:58:32;96510.84;;;14.21;45.28
40838;BME280;29632;49.168;9.848;2023-02-23T10:01:42;96509.66;;;14.24;45.17
40838;BME280;29632;49.168;9.848;2023-02-23T10:15:27;96516.88;;;14.45;45.12
40838;BME280;29632;49.168;9.848;2023-02-23T10:18:15;96513.94;;;14.48;44.96
40838;BME280;29632;49.168;9.848;2023-02-23T10:21:02;96515.03;;;14.53;45.13
40838;BME280;29632;49.168;9.848;2023-02-23T10:23:38;96511.91;;;14.58;45.04
40838;BME280;29632;49.168;9.848;2023-02-23T10:26:06;96513.38;;;14.61;44.77
40838;BME280;29632;49.168;9.848;2023-02-23T10:28:39;96520.06;;;14.63;45.01
40838;BME280;29632;49.168;9.848;2023-02-23T10:31:41;96511.22;;;14.64;45.25
40838;BME280;29632;49.168;9.848;2023-02-23T10:34:13;96512.69;;;14.67;45.20
40838;BME280;29632;49.168;9.848;2023-02-23T10:36:50;96513.31;;;14.69;45.27
40838;BME280;29632;49.168;9.848;2023-02-23T10:39:17;96510.34;;;14.72;45.04
40838;BME280;29632;49.168;9.848;2023-02-23T10:41:43;96512.25;;;14.78;45.34
40838;BME280;29632;49.168;9.848;2023-02-23T10:44:16;96516.97;;;14.83;45.34
40838;BME280;29632;49.168;9.848;2023-02-23T10:46:42;96511.53;;;14.84;45.38
40838;BME280;29632;49.168;9.848;2023-02-23T10:49:13;96514.00;;;14.86;45.30
40838;BME280;29632;49.168;9.848;2023-02-23T10:51:42;96515.81;;;14.85;45.58
40838;BME280;29632;49.168;9.848;2023-02-23T10:54:37;96514.63;;;14.88;45.43
40838;BME280;29632;49.168;9.848;2023-02-23T10:57:04;96517.06;;;14.89;45.51
40838;BME280;29632;49.168;9.848;2023-02-23T10:59:32;96520.16;;;14.93;45.46
40838;BME280;29632;49.168;9.848;2023-02-23T11:01:58;96513.72;;;14.96;45.46
40838;BME280;29632;49.168;9.848;2023-02-23T11:04:26;96517.81;;;14.98;45.71
40838;BME280;29632;49.168;9.848;2023-02-23T11:07:14;96515.66;;;15.02;45.68
40838;BME280;29632;49.168;9.848;2023-02-23T11:09:41;96524.78;;;15.06;45.63
40838;BME280;29632;49.168;9.848;2023-02-23T11:14:51;96520.56;;;15.05;45.50
40838;BME280;29632;49.168;9.848;2023-02-23T11:17:35;96515.31;;;15.05;45.67
40838;BME280;29632;49.168;9.848;2023-02-23T11:20:05;96512.34;;;15.08;45.59
40838;BME280;29632;49.168;9.848;2023-02-23T11:22:34;96517.19;;;15.11;45.74
40838;BME280;29632;49.168;9.848;2023-02-23T11:25:02;96514.22;;;15.14;45.64
40838;BME280;29632;49.168;9.848;2023-02-23T11:27:37;96509.59;;;15.16;45.50
40838;BME280;29632;49.168;9.848;2023-02-23T11:30:03;96498.94;;;15.18;45.65
40838;BME280;29632;49.168;9.848;2023-02-23T11:32:32;96499.22;;;15.23;45.89
40838;BME280;29632;49.168;9.848;2023-02-23T11:37:44;96499.25;;;15.38;45.58
40838;BME280;29632;49.168;9.848;2023-02-23T11:45:33;96493.31;;;15.65;45.42
40838;BME280;29632;49.168;9.848;2023-02-23T11:48:02;96492.09;;;15.76;45.68
40838;BME280;29632;49.168;9.848;2023-02-23T11:50:34;96486.09;;;15.82;45.55
40838;BME280;29632;49.168;9.848;2023-02-23T11:55:25;96490.03;;;15.93;45.46
40838;BME280;29632;49.168;9.848;2023-02-23T11:57:53;96483.88;;;16.01;45.46
40838;BME280;29632;49.168;9.848;2023-02-23T12:00:31;96480.50;;;16.07;45.46
40838;BME280;29632;49.168;9.848;2023-02-23T12:02:58;96476.13;;;16.14;45.53
40838;BME280;29632;49.168;9.848;2023-02-23T12:05:28;96478.84;;;16.21;45.24
40838;BME280;29632;49.168;9.848;2023-02-23T12:10:33;96469.63;;;16.32;45.34
40838;BME280;29632;49.168;9.848;2023-02-23T12:18:31;96470.03;;;16.50;45.12
40838;BME280;29632;49.168;9.848;2023-02-23T12:21:01;96460.75;;;16.54;45.38
40838;BME280;29632;49.168;9.848;2023-02-23T12:23:29;96461.63;;;16.61;45.14
40838;BME280;29632;49.168;9.848;2023-02-23T12:26:01;96465.13;;;16.69;45.15
40838;BME280;29632;49.168;9.848;2023-02-23T12:28:33;96462.34;;;16.77;45.13
40838;BME280;29632;49.168;9.848;2023-02-23T12:33:34;96452.97;;;16.89;45.02
40838;BME280;29632;49.168;9.848;2023-02-23T12:36:08;96459.47;;;16.93;45.29
40838;BME280;29632;49.168;9.848;2023-02-23T12:38:43;96456.44;;;16.96;45.10
40838;BME280;29632;49.168;9.848;2023-02-23T12:41:13;96446.81;;;17.04;45.13
40838;BME280;29632;49.168;9.848;2023-02-23T12:43:47;96448.09;;;17.14;45.24
40838;BME280;29632;49.168;9.848;2023-02-23T12:46:36;96447.34;;;17.27;44.99
40838;BME280;29632;49.168;9.848;2023-02-23T12:49:36;96439.09;;;17.37;44.89
40838;BME280;29632;49.168;9.848;2023-02-23T12:52:14;96443.00;;;17.48;45.05
40838;BME280;29632;49.168;9.848;2023-02-23T12:54:42;96442.63;;;17.58;44.75
40838;BME280;29632;49.168;9.848;2023-02-23T12:59:40;96432.16;;;17.78;44.79
40838;BME280;29632;49.168;9.848;2023-02-23T13:02:22;96427.97;;;17.90;44.79
40838;BME280;29632;49.168;9.848;2023-02-23T13:05:11;96431.28;;;18.05;44.84
40838;BME280;29632;49.168;9.848;2023-02-23T13:10:57;96427.47;;;18.28;44.45
40838;BME280;29632;49.168;9.848;2023-02-23T13:13:41;96425.63;;;18.35;44.52
40838;BME280;29632;49.168;9.848;2023-02-23T13:16:13;96418.34;;;18.37;44.71
40838;BME280;29632;49.168;9.848;2023-02-23T13:19:05;96418.13;;;18.39;44.75
40838;BME280;29632;49.168;9.848;2023-02-23T13:22:01;96427.06;;;18.44;44.92
40838;BME280;29632;49.168;9.848;2023-02-23T13:24:35;96416.50;;;18.51;44.74
40838;BME280;29632;49.168;9.848;2023-02-23T13:27:22;96419.56;;;18.61;44.69
40838;BME280;29632;49.168;9.848;2023-02-23T13:29:51;96418.53;;;18.76;44.74
40838;BME280;29632;49.168;9.848;2023-02-23T13:32:19;96417.53;;;18.90;44.59
40838;BME280;29632;49.168;9.848;2023-02-23T13:37:20;96409.41;;;18.92;44.84
40838;BME280;29632;49.168;9.848;2023-02-23T13:45:51;96414.66;;;18.78;45.08
40838;BME280;29632;49.168;9.848;2023-02-23T13:48:29;96413.06;;;18.71;45.13
40838;BME280;29632;49.168;9.848;2023-02-23T13:51:27;96417.53;;;18.70;45.20
40838;BME280;29632;49.168;9.848;2023-02-23T13:56:22;96410.63;;;18.76;44.95
40838;BME280;29632;49.168;9.848;2023-02-23T13:58:58;96417.31;;;18.65;44.90
40838;BME280;29632;49.168;9.848;2023-02-23T14:01:32;96413.69;;;18.59;45.33
40838;BME280;29632;49.168;9.848;2023-02-23T14:04:02;96409.59;;;18.57;45.18
40838;BME280;29632;49.168;9.848;2023-02-23T14:06:29;96406.38;;;18.55;45.08
40838;BME280;29632;49.168;9.848;2023-02-23T14:09:20;96408.00;;;18.49;45.25
40838;BME280;29632;49.168;9.848;2023-02-23T14:11:55;96412.88;;;18.45;45.16
40838;BME280;29632;49.168;9.848;2023-02-23T14:22:25;96405.75;;;18.73;44.71
40838;BME280;29632;49.168;9.848;2023-02-23T14:28:00;96409.41;;;18.72;44.72
40838;BME280;29632;49.168;9.848;2023-02-23T14:30:46;96409.63;;;18.70;44.56
40838;BME280;29632;49.168;9.848;2023-02-23T14:41:39;96409.59;;;18.57;44.70
40838;BME280;29632;49.168;9.848;2023-02-23T14:44:14;96407.56;;;18.52;44.63
40838;BME280;29632;49.168;9.848;2023-02-23T14:46:53;96405.97;;;18.51;44.70
40838;BME280;29632;49.168;9.848;2023-02-23T14:49:24;96401.69;;;18.50;44.73
40838;BME280;29632;49.168;9.848;2023-02-23T14:51:51;96415.06;;;18.48;44.64
40838;BME280;29632;49.168;9.848;2023-02-23T14:54:30;96405.75;;;18.46;44.82
40838;BME280;29632;49.168;9.848;2023-02-23T14:56:58;96402.31;;;18.45;44.66
40838;BME280;29632;49.168;9.848;2023-02-23T14:59:28;96399.69;;;18.45;44.76
40838;BME280;29632;49.168;9.848;2023-02-23T15:01:55;96393.38;;;18.46;44.59
40838;BME280;29632;49.168;9.848;2023-02-23T15:04:25;96403.31;;;18.44;44.52
40838;BME280;29632;49.168;9.848;2023-02-23T15:06:53;96405.56;;;18.41;44.68
40838;BME280;29632;49.168;9.848;2023-02-23T15:09:38;96401.06;;;18.35;44.35
40838;BME280;29632;49.168;9.848;2023-02-23T15:12:24;96413.03;;;18.24;44.62
40838;BME280;29632;49.168;9.848;2023-02-23T15:15:00;96415.06;;;18.15;44.82
40838;BME280;29632;49.168;9.848;2023-02-23T15:17:27;96412.84;;;18.12;44.78